createdAt,value
2018-04-15T00:00:28.332Z,33.30
2018-04-15T00:02:56.005Z,30.83
2018-04-15T00:05:23.646Z,31.03
2018-04-15T00:07:51.236Z,30.77
2018-04-15T00:10:18.996Z,31.20
2018-04-15T00:12:46.635Z,31.77
2018-04-15T00:15:14.289Z,27.70
2018-04-15T00:17:42.504Z,30.30
2018-04-15T00:20:10.260Z,30.30
2018-04-15T00:22:37.881Z,31.73
2018-04-15T00:25:05.502Z,29.13
2018-04-15T00:27:33.894Z,32.57
2018-04-15T00:30:01.545Z,28.30
2018-04-15T00:32:29.140Z,28.90
2018-04-15T00:34:56.832Z,30.27
2018-04-15T00:37:24.428Z,28.13
2018-04-15T00:39:52.039Z,29.00
2018-04-15T00:42:19.768Z,34.23
2018-04-15T00:44:47.353Z,31.60
2018-04-15T00:47:14.949Z,30.27
2018-04-15T00:49:42.660Z,27.63
2018-04-15T00:52:10.323Z,29.10
2018-04-15T00:54:37.925Z,30.27
2018-04-15T00:57:05.726Z,30.03
2018-04-15T00:59:33.328Z,26.77
2018-04-15T01:02:01.874Z,31.53
2018-04-15T01:04:29.604Z,32.40
2018-04-15T01:06:57.199Z,25.70
2018-04-15T01:09:24.793Z,28.57
2018-04-15T01:11:52.627Z,30.53
2018-04-15T01:14:20.862Z,30.50
2018-04-15T01:16:48.517Z,29.17
2018-04-15T01:19:16.148Z,33.07
2018-04-15T01:21:43.743Z,31.90
2018-04-15T01:24:11.350Z,31.67
2018-04-15T01:26:38.998Z,33.23
2018-04-15T01:29:07.712Z,35.07
2018-04-15T01:31:35.322Z,32.00
2018-04-15T01:34:03.077Z,31.17
2018-04-15T01:36:30.663Z,32.50
2018-04-15T01:38:59.153Z,32.90
2018-04-15T01:41:26.886Z,31.73
2018-04-15T01:43:54.486Z,30.43
2018-04-15T01:46:22.082Z,31.37
2018-04-15T01:48:49.776Z,31.20
2018-04-15T01:51:17.379Z,31.43
2018-04-15T01:53:45.001Z,29.77
2018-04-15T01:56:12.633Z,36.87
2018-04-15T01:58:40.222Z,35.27
2018-04-15T02:01:07.811Z,35.83
2018-04-15T02:03:35.451Z,31.97
2018-04-15T02:06:03.100Z,32.03
2018-04-15T02:08:30.761Z,32.20
2018-04-15T02:10:58.491Z,29.97
2018-04-15T02:13:27.277Z,30.73
2018-04-15T02:15:54.918Z,31.83
2018-04-15T02:18:22.611Z,30.73
2018-04-15T02:20:50.211Z,31.30
2018-04-15T02:23:17.796Z,32.77
2018-04-15T02:25:45.560Z,32.10
2018-04-15T02:28:13.201Z,31.77
2018-04-15T02:30:40.804Z,34.50
2018-04-15T02:33:08.424Z,33.20
2018-04-15T02:35:36.019Z,30.40
2018-04-15T02:38:03.668Z,30.60
2018-04-15T02:40:31.488Z,29.37
2018-04-15T02:42:59.124Z,27.30
2018-04-15T02:45:26.736Z,29.70
2018-04-15T02:47:54.377Z,33.97
2018-04-15T02:50:21.970Z,31.47
2018-04-15T02:52:49.603Z,34.37
2018-04-15T02:55:17.256Z,33.83
2018-04-15T02:57:44.851Z,32.87
2018-04-15T03:00:12.440Z,32.47
2018-04-15T03:02:40.160Z,34.93
2018-04-15T03:05:07.747Z,33.97
2018-04-15T03:07:35.396Z,31.60
2018-04-15T03:10:03.182Z,33.10
2018-04-15T03:12:30.824Z,33.93
2018-04-15T03:14:58.539Z,31.53
2018-04-15T03:17:26.255Z,33.93
2018-04-15T03:19:53.837Z,33.90
2018-04-15T03:22:21.485Z,33.37
2018-04-15T03:24:49.213Z,33.30
2018-04-15T03:27:16.810Z,34.27
2018-04-15T03:29:44.436Z,31.40
2018-04-15T03:32:12.063Z,34.13
2018-04-15T03:34:39.752Z,36.10
2018-04-15T03:37:07.363Z,33.40
2018-04-15T03:39:35.149Z,32.40
2018-04-15T03:42:02.866Z,35.03
2018-04-15T03:44:30.510Z,37.17
2018-04-15T03:46:58.250Z,39.53
2018-04-15T03:49:25.913Z,34.73
2018-04-15T03:51:53.749Z,39.90
2018-04-15T03:54:22.247Z,44.23
2018-04-15T03:56:49.822Z,43.97
2018-04-15T03:59:17.407Z,44.00
2018-04-15T04:01:45.170Z,45.80
2018-04-15T04:04:12.748Z,45.30
2018-04-15T04:06:40.336Z,41.83
2018-04-15T04:09:07.983Z,48.47
2018-04-15T04:11:35.568Z,44.00
2018-04-15T04:14:03.216Z,53.53
2018-04-15T04:16:31.175Z,46.30
2018-04-15T04:19:10.641Z,43.27
2018-04-15T04:21:50.036Z,51.07
2018-04-15T04:24:29.547Z,43.50
2018-04-15T04:26:57.180Z,44.90
2018-04-15T04:29:24.825Z,44.43
2018-04-15T04:31:52.404Z,46.50
2018-04-15T04:34:20.185Z,43.30
2018-04-15T04:36:47.825Z,38.13
2018-04-15T04:39:15.460Z,42.07
2018-04-15T04:41:43.098Z,43.20
2018-04-15T04:44:10.680Z,43.37
2018-04-15T04:46:38.316Z,40.37
2018-04-15T04:49:06.504Z,44.27
2018-04-15T04:51:34.144Z,42.10
2018-04-15T04:54:01.805Z,39.77
2018-04-15T04:56:29.502Z,38.87
2018-04-15T04:58:57.093Z,42.73
2018-04-15T05:01:24.744Z,46.40
2018-04-15T05:03:52.470Z,47.20
2018-04-15T05:06:20.140Z,43.13
2018-04-15T05:08:47.731Z,51.93
2018-04-15T05:11:15.541Z,51.80
2018-04-15T05:13:43.136Z,48.60
2018-04-15T05:16:10.708Z,51.27
2018-04-15T05:18:38.980Z,52.10
2018-04-15T05:21:06.573Z,49.77
2018-04-15T05:23:34.168Z,65.33
2018-04-15T05:26:02.190Z,47.33
2018-04-15T05:28:30.148Z,48.27
2018-04-15T05:30:57.737Z,51.27
2018-04-15T05:33:26.268Z,47.00
2018-04-15T05:35:54.619Z,45.60
2018-04-15T05:38:22.212Z,47.33
2018-04-15T05:40:50.168Z,44.20
2018-04-15T05:43:17.757Z,43.03
2018-04-15T05:45:45.347Z,40.23
2018-04-15T05:48:12.973Z,46.17
2018-04-15T05:50:40.571Z,43.60
2018-04-15T05:53:08.162Z,45.83
2018-04-15T05:55:35.954Z,44.50
2018-04-15T05:58:03.540Z,41.13
2018-04-15T06:00:31.189Z,40.60
2018-04-15T06:02:58.820Z,41.50
2018-04-15T06:05:26.540Z,45.40
2018-04-15T06:07:54.166Z,44.13
2018-04-15T06:10:21.850Z,41.50
2018-04-15T06:12:49.499Z,44.30
2018-04-15T06:15:17.095Z,42.37
2018-04-15T06:17:45.581Z,38.73
2018-04-15T06:20:14.295Z,38.90
2018-04-15T06:22:46.360Z,41.33
2018-04-15T06:25:15.637Z,37.90
2018-04-15T06:27:44.072Z,41.20
2018-04-15T06:30:12.691Z,40.40
2018-04-15T06:32:40.317Z,41.40
2018-04-15T06:35:07.916Z,39.47
2018-04-15T06:37:36.475Z,39.33
2018-04-15T06:40:04.149Z,39.53
2018-04-15T06:42:31.810Z,41.07
2018-04-15T06:44:59.484Z,42.90
2018-04-15T06:47:27.074Z,41.40
2018-04-15T06:49:54.673Z,41.40
2018-04-15T06:52:22.296Z,39.30
2018-04-15T06:54:49.880Z,41.50
2018-04-15T06:57:17.480Z,41.80
2018-04-15T06:59:45.184Z,41.00
2018-04-15T07:02:12.763Z,43.80
2018-04-15T07:04:40.350Z,43.60
2018-04-15T07:07:08.055Z,41.13
2018-04-15T07:09:35.700Z,45.40
2018-04-15T07:12:03.369Z,38.80
2018-04-15T07:14:31.079Z,39.40
2018-04-15T07:16:58.753Z,42.43
2018-04-15T07:19:26.332Z,39.93
2018-04-15T07:21:54.266Z,45.07
2018-04-15T07:24:21.892Z,44.30
2018-04-15T07:26:49.485Z,49.47
2018-04-15T07:29:17.231Z,41.13
2018-04-15T07:31:44.882Z,43.33
2018-04-15T07:34:12.496Z,45.40
2018-04-15T07:36:40.188Z,41.80
2018-04-15T07:39:07.779Z,39.63
2018-04-15T07:41:35.403Z,39.87
2018-04-15T07:44:03.055Z,43.37
2018-04-15T07:46:30.717Z,35.47
2018-04-15T07:48:58.935Z,35.73
2018-04-15T07:51:26.568Z,43.80
2018-04-15T07:53:54.227Z,40.93
2018-04-15T07:56:21.906Z,38.20
2018-04-15T07:58:52.097Z,43.77
2018-04-15T08:01:19.838Z,45.07
2018-04-15T08:03:47.421Z,36.03
2018-04-15T08:06:15.150Z,38.67
2018-04-15T08:08:42.795Z,35.57
2018-04-15T08:11:11.220Z,40.73
2018-04-15T08:13:38.864Z,38.90
2018-04-15T08:16:06.521Z,41.40
2018-04-15T08:18:34.113Z,38.33
2018-04-15T08:21:01.908Z,38.50
2018-04-15T08:23:29.859Z,39.87
2018-04-15T08:25:57.448Z,38.90
2018-04-15T08:28:25.082Z,38.87
2018-04-15T08:30:52.755Z,39.00
2018-04-15T08:33:20.374Z,38.53
2018-04-15T08:35:48.025Z,35.77
2018-04-15T08:38:15.669Z,36.90
2018-04-15T08:40:43.261Z,35.57
2018-04-15T08:43:11.019Z,34.10
2018-04-15T08:45:38.658Z,36.47
2018-04-15T08:48:06.240Z,38.80
2018-04-15T08:50:33.871Z,36.00
2018-04-15T08:53:01.479Z,37.97
2018-04-15T08:55:29.128Z,36.27
2018-04-15T08:57:56.779Z,38.23
2018-04-15T09:00:24.379Z,38.07
2018-04-15T09:02:51.955Z,39.73
2018-04-15T09:05:20.115Z,40.33
2018-04-15T09:07:47.703Z,41.33
2018-04-15T09:10:15.339Z,39.67
2018-04-15T09:12:43.100Z,42.67
2018-04-15T09:15:10.749Z,40.67
2018-04-15T09:17:38.390Z,42.77
2018-04-15T09:20:06.120Z,43.03
2018-04-15T09:22:33.708Z,41.13
2018-04-15T09:25:01.387Z,43.27
2018-04-15T09:27:29.103Z,44.90
2018-04-15T09:29:56.713Z,42.17
2018-04-15T09:32:24.364Z,44.53
2018-04-15T09:34:52.044Z,44.20
2018-04-15T09:37:19.646Z,42.47
2018-04-15T09:39:47.290Z,41.67
2018-04-15T09:42:15.030Z,44.53
2018-04-15T09:44:42.718Z,44.73
2018-04-15T09:47:10.321Z,43.80
2018-04-15T09:49:37.965Z,42.43
2018-04-15T09:52:05.577Z,43.63
2018-04-15T09:54:33.165Z,46.10
2018-04-15T09:57:00.891Z,41.47
2018-04-15T09:59:28.468Z,64.27
2018-04-15T10:01:56.060Z,46.00
2018-04-15T10:04:24.089Z,49.17
2018-04-15T10:06:51.724Z,45.50
2018-04-15T10:09:19.397Z,44.60
2018-04-15T10:11:47.808Z,42.57
2018-04-15T10:14:15.392Z,46.53
2018-04-15T10:16:42.984Z,42.87
2018-04-15T10:19:11.286Z,49.17
2018-04-15T10:21:38.916Z,45.63
2018-04-15T10:24:06.661Z,44.93
2018-04-15T10:26:34.420Z,42.47
2018-04-15T10:29:02.006Z,42.00
2018-04-15T10:31:29.648Z,37.70
2018-04-15T10:33:57.432Z,39.83
2018-04-15T10:36:25.024Z,35.87
2018-04-15T10:38:52.672Z,37.63
2018-04-15T10:41:20.364Z,38.40
2018-04-15T10:43:47.956Z,40.50
2018-04-15T10:46:16.149Z,35.43
2018-04-15T10:48:43.781Z,35.13
2018-04-15T10:51:11.364Z,33.43
2018-04-15T10:53:38.981Z,29.80
2018-04-15T10:56:06.708Z,34.87
2018-04-15T10:58:34.291Z,32.50
2018-04-15T11:01:01.933Z,35.30
2018-04-15T11:03:29.740Z,33.30
2018-04-15T11:05:57.425Z,36.70
2018-04-15T11:08:25.010Z,30.23
2018-04-15T11:10:52.632Z,29.13
2018-04-15T11:13:20.223Z,27.83
2018-04-15T11:15:47.874Z,33.70
2018-04-15T11:18:15.517Z,28.97
2018-04-15T11:20:43.480Z,27.30
2018-04-15T11:23:11.084Z,25.93
2018-04-15T11:25:38.790Z,29.87
2018-04-15T11:28:06.609Z,29.40
2018-04-15T11:30:34.199Z,27.73
2018-04-15T11:33:01.852Z,26.57
2018-04-15T11:35:29.440Z,24.73
2018-04-15T11:37:57.056Z,23.37
2018-04-15T11:40:24.760Z,22.40
2018-04-15T11:42:53.114Z,25.47
2018-04-15T11:45:20.780Z,21.10
2018-04-15T11:47:48.584Z,22.83
2018-04-15T11:50:16.181Z,22.30
2018-04-15T11:52:43.768Z,22.80
2018-04-15T11:55:11.423Z,22.97
2018-04-15T11:57:39.011Z,20.50
2018-04-15T12:00:06.656Z,23.48
2018-04-15T12:02:34.401Z,21.43
2018-04-15T12:05:02.012Z,27.00
2018-04-15T12:07:29.610Z,23.23
2018-04-15T12:09:57.236Z,23.13
2018-04-15T12:12:24.880Z,21.27
2018-04-15T12:14:52.467Z,21.12
2018-04-15T12:17:20.250Z,19.65
2018-04-15T12:19:47.848Z,24.80
2018-04-15T12:22:15.444Z,18.92
2018-04-15T12:24:43.260Z,18.73
2018-04-15T12:27:10.848Z,18.95
2018-04-15T12:29:38.990Z,22.92
2018-04-15T12:32:06.633Z,21.45
2018-04-15T12:34:34.227Z,20.67
2018-04-15T12:37:01.829Z,19.55
2018-04-15T12:39:29.455Z,20.50
2018-04-15T12:41:57.040Z,20.87
2018-04-15T12:44:24.709Z,21.43
2018-04-15T12:46:52.414Z,23.12
2018-04-15T12:49:20.077Z,24.13
2018-04-15T12:51:47.668Z,21.53
2018-04-15T12:54:15.386Z,22.13
2018-04-15T12:56:42.969Z,23.47
2018-04-15T12:59:10.556Z,22.03
2018-04-15T13:01:38.276Z,21.13
2018-04-15T13:04:05.874Z,17.30
2018-04-15T13:06:33.463Z,17.77
2018-04-15T13:09:01.308Z,17.33
2018-04-15T13:11:28.886Z,21.17
2018-04-15T13:13:56.544Z,20.77
2018-04-15T13:16:24.256Z,23.47
2018-04-15T13:18:51.897Z,24.53
2018-04-15T13:21:19.604Z,22.77
2018-04-15T13:23:48.124Z,21.00
2018-04-15T13:26:15.848Z,25.53
2018-04-15T13:28:43.517Z,18.47
2018-04-15T13:31:11.348Z,20.73
2018-04-15T13:33:38.948Z,21.40
2018-04-15T13:36:06.573Z,20.77
2018-04-15T13:38:34.202Z,20.17
2018-04-15T13:41:01.820Z,23.97
2018-04-15T13:43:29.428Z,18.37
2018-04-15T13:45:57.156Z,19.30
2018-04-15T13:48:24.819Z,19.63
2018-04-15T13:50:52.435Z,17.43
2018-04-15T13:53:20.161Z,16.40
2018-04-15T13:55:47.811Z,14.93
2018-04-15T13:58:15.411Z,18.07
2018-04-15T14:00:43.046Z,17.00
2018-04-15T14:03:10.758Z,16.03
2018-04-15T14:05:38.385Z,18.33
2018-04-15T14:08:06.113Z,21.00
2018-04-15T14:10:33.737Z,22.67
2018-04-15T14:13:01.447Z,17.97
2018-04-15T14:15:29.106Z,19.93
2018-04-15T14:17:56.756Z,18.97
2018-04-15T14:20:24.341Z,19.33
2018-04-15T14:22:52.147Z,22.90
2018-04-15T14:25:19.871Z,19.23
2018-04-15T14:27:47.452Z,21.37
2018-04-15T14:30:15.137Z,19.67
2018-04-15T14:32:42.924Z,19.90
2018-04-15T14:35:10.543Z,18.63
2018-04-15T14:37:38.176Z,20.13
2018-04-15T14:40:05.777Z,18.57
2018-04-15T14:42:34.267Z,18.37
2018-04-15T14:45:01.990Z,20.20
2018-04-15T14:47:29.581Z,20.83
2018-04-15T14:49:57.187Z,19.73
2018-04-15T14:52:26.943Z,23.23
2018-04-15T14:54:54.931Z,21.90
2018-04-15T14:57:22.615Z,19.57
2018-04-15T14:59:50.352Z,20.53
2018-04-15T15:02:17.962Z,21.60
2018-04-15T15:04:45.654Z,19.07
2018-04-15T15:07:13.300Z,18.10
2018-04-15T15:09:40.926Z,16.23
2018-04-15T15:12:08.541Z,20.10
2018-04-15T15:14:36.184Z,17.27
2018-04-15T15:17:03.787Z,22.63
2018-04-15T15:19:31.460Z,19.87
2018-04-15T15:21:59.144Z,20.07
2018-04-15T15:24:27.860Z,16.67
2018-04-15T15:26:55.459Z,23.40
2018-04-15T15:29:23.088Z,17.63
2018-04-15T15:31:50.703Z,18.40
2018-04-15T15:34:20.064Z,19.20
2018-04-15T15:36:47.716Z,17.83
2018-04-15T15:39:15.350Z,21.03
2018-04-15T15:41:43.005Z,20.50
2018-04-15T15:44:10.705Z,18.90
2018-04-15T15:46:38.373Z,20.40
2018-04-15T15:49:06.032Z,22.53
2018-04-15T15:51:33.761Z,26.70
2018-04-15T15:54:01.411Z,21.77
2018-04-15T15:56:29.022Z,21.03
2018-04-15T15:58:56.753Z,19.80
2018-04-15T16:01:24.365Z,19.03
2018-04-15T16:03:52.077Z,25.90
2018-04-15T16:06:19.713Z,18.67
2018-04-15T16:08:47.306Z,20.53
2018-04-15T16:11:14.981Z,20.10
2018-04-15T16:13:43.682Z,21.57
2018-04-15T16:16:11.285Z,21.67
2018-04-15T16:18:38.881Z,23.17
2018-04-15T16:21:06.529Z,18.90
2018-04-15T16:23:34.233Z,20.67
2018-04-15T16:26:01.833Z,22.83
2018-04-15T16:28:29.552Z,26.07
2018-04-15T16:30:57.217Z,22.00
2018-04-15T16:33:24.875Z,24.10
2018-04-15T16:35:59.504Z,20.03
2018-04-15T16:38:27.343Z,24.67
2018-04-15T16:40:55.013Z,24.33
2018-04-15T16:43:22.777Z,22.83
2018-04-15T16:45:50.427Z,18.83
2018-04-15T16:48:18.077Z,19.50
2018-04-15T16:50:45.795Z,18.70
2018-04-15T16:53:13.456Z,25.47
2018-04-15T16:55:41.123Z,24.53
2018-04-15T16:58:08.854Z,23.10
2018-04-15T17:00:36.452Z,21.50
2018-04-15T17:03:04.142Z,22.47
2018-04-15T17:05:31.844Z,20.73
2018-04-15T17:07:59.500Z,23.63
2018-04-15T17:10:27.160Z,22.40
2018-04-15T17:12:54.974Z,22.97
2018-04-15T17:15:23.384Z,20.73
2018-04-15T17:17:50.981Z,23.93
2018-04-15T17:20:18.661Z,23.27
2018-04-15T17:22:46.268Z,25.20
2018-04-15T17:25:13.865Z,21.63
2018-04-15T17:27:41.600Z,23.67
2018-04-15T17:30:09.201Z,28.17
2018-04-15T17:32:36.796Z,22.07
2018-04-15T17:35:04.456Z,27.30
2018-04-15T17:37:32.402Z,21.43
2018-04-15T17:39:59.996Z,23.70
2018-04-15T17:42:27.801Z,28.13
2018-04-15T17:44:55.495Z,26.63
2018-04-15T17:47:23.165Z,27.23
2018-04-15T17:49:50.885Z,21.87
2018-04-15T17:52:18.542Z,23.73
2018-04-15T17:54:46.188Z,22.47
2018-04-15T17:57:14.032Z,23.47
2018-04-15T17:59:41.725Z,23.40
2018-04-15T18:02:09.344Z,27.77
2018-04-15T18:04:37.141Z,34.73
2018-04-15T18:07:04.791Z,27.57
2018-04-15T18:09:32.410Z,25.63
2018-04-15T18:12:00.200Z,21.77
2018-04-15T18:14:27.844Z,27.87
2018-04-15T18:16:55.519Z,23.13
2018-04-15T18:19:23.180Z,25.20
2018-04-15T18:21:51.472Z,25.60
2018-04-15T18:24:19.086Z,24.60
2018-04-15T18:26:46.812Z,28.53
2018-04-15T18:29:14.401Z,26.07
2018-04-15T18:31:42.104Z,27.37
2018-04-15T18:34:09.905Z,20.67
2018-04-15T18:36:37.535Z,22.30
2018-04-15T18:39:06.200Z,22.17
2018-04-15T18:41:33.838Z,23.53
2018-04-15T18:44:01.522Z,22.93
2018-04-15T18:46:29.202Z,24.50
2018-04-15T18:48:56.989Z,20.57
2018-04-15T18:51:24.571Z,21.03
2018-04-15T18:53:52.148Z,24.43
2018-04-15T18:56:19.785Z,25.80
2018-04-15T18:58:47.380Z,19.93
2018-04-15T19:01:15.005Z,21.00
2018-04-15T19:03:42.696Z,23.10
2018-04-15T19:06:10.369Z,22.40
2018-04-15T19:08:38.009Z,20.73
2018-04-15T19:11:05.818Z,20.83
2018-04-15T19:13:33.493Z,18.90
2018-04-15T19:16:01.100Z,21.03
2018-04-15T19:18:29.287Z,24.97
2018-04-15T19:20:56.885Z,17.23
2018-04-15T19:23:24.552Z,17.90
2018-04-15T19:25:52.278Z,18.50
2018-04-15T19:28:19.875Z,18.53
2018-04-15T19:30:47.480Z,18.50
2018-04-15T19:33:15.195Z,20.13
2018-04-15T19:35:42.779Z,19.07
2018-04-15T19:38:10.360Z,19.00
2018-04-15T19:40:38.248Z,19.33
2018-04-15T19:43:05.895Z,23.30
2018-04-15T19:45:33.524Z,28.13
2018-04-15T19:48:01.176Z,21.00
2018-04-15T19:50:28.856Z,19.73
2018-04-15T19:52:56.440Z,19.03
2018-04-15T19:55:24.111Z,17.33
2018-04-15T19:57:51.731Z,17.07
2018-04-15T20:00:19.316Z,23.40
2018-04-15T20:02:47.055Z,20.30
2018-04-15T20:05:14.670Z,19.33
2018-04-15T20:07:42.332Z,17.23
2018-04-15T20:10:09.956Z,17.60
2018-04-15T20:12:37.640Z,19.73
2018-04-15T20:15:05.244Z,17.67
2018-04-15T20:17:33.073Z,18.67
2018-04-15T20:20:00.720Z,20.17
2018-04-15T20:22:28.459Z,21.30
2018-04-15T20:24:56.105Z,20.43
2018-04-15T20:27:23.696Z,20.50
2018-04-15T20:29:51.408Z,26.50
2018-04-15T20:32:19.160Z,27.60
2018-04-15T20:34:46.752Z,19.20
2018-04-15T20:37:14.353Z,19.87
2018-04-15T20:39:42.172Z,16.53
2018-04-15T20:42:10.369Z,20.20
2018-04-15T20:44:38.045Z,19.00
2018-04-15T20:47:05.731Z,20.57
2018-04-15T20:49:33.385Z,18.40
2018-04-15T20:52:00.981Z,17.27
2018-04-15T20:54:28.694Z,19.97
2018-04-15T20:56:56.312Z,18.23
2018-04-15T20:59:23.968Z,19.10
2018-04-15T21:01:52.384Z,21.90
2018-04-15T21:04:20.057Z,19.73
2018-04-15T21:06:47.682Z,18.20
2018-04-15T21:09:15.328Z,18.63
2018-04-15T21:11:43.803Z,18.63
2018-04-15T21:14:11.381Z,21.20
2018-04-15T21:16:39.072Z,20.00
2018-04-15T21:19:06.666Z,18.83
2018-04-15T21:21:34.265Z,19.30
2018-04-15T21:24:02.028Z,16.57
2018-04-15T21:26:29.685Z,17.00
2018-04-15T21:28:57.277Z,15.50
2018-04-15T21:31:24.916Z,16.67
2018-04-15T21:33:52.581Z,15.97
2018-04-15T21:36:20.236Z,16.03
2018-04-15T21:41:25.196Z,21.20
2018-04-15T21:43:52.910Z,16.43
2018-04-15T21:46:21.357Z,18.87
2018-04-15T21:48:49.379Z,20.60
2018-04-15T21:51:16.979Z,18.43
2018-04-15T21:53:44.587Z,18.97
2018-04-15T21:56:12.243Z,19.10
2018-04-15T21:58:39.836Z,19.57
2018-04-15T22:01:07.427Z,20.23
2018-04-15T22:03:35.126Z,17.47
2018-04-15T22:06:02.791Z,18.87
2018-04-15T22:08:30.389Z,16.73
2018-04-15T22:10:58.056Z,16.87
2018-04-15T22:13:25.725Z,18.27
2018-04-15T22:15:53.300Z,20.87
2018-04-15T22:18:21.036Z,15.73
2018-04-15T22:20:48.727Z,18.37
2018-04-15T22:23:16.372Z,17.57
2018-04-15T22:25:44.100Z,17.90
2018-04-15T22:28:11.692Z,19.80
2018-04-15T22:30:39.349Z,17.63
2018-04-15T22:33:07.074Z,20.93
2018-04-15T22:35:34.732Z,18.37
2018-04-15T22:38:02.409Z,21.40
2018-04-15T22:40:30.304Z,19.70
2018-04-15T22:42:57.950Z,17.83
2018-04-15T22:45:25.789Z,18.03
2018-04-15T22:47:59.315Z,19.50
2018-04-15T22:50:32.415Z,18.83
2018-04-15T22:53:00.186Z,20.07
2018-04-15T22:55:27.779Z,18.77
2018-04-15T22:57:55.392Z,17.70
2018-04-15T23:00:23.069Z,18.83
2018-04-15T23:02:50.682Z,15.93
2018-04-15T23:05:18.284Z,16.37
2018-04-15T23:07:46.016Z,18.70
2018-04-15T23:10:13.613Z,16.57
2018-04-15T23:12:41.322Z,17.53
2018-04-15T23:15:08.952Z,18.80
2018-04-15T23:17:36.641Z,16.03
2018-04-15T23:20:05.055Z,16.53
2018-04-15T23:22:33.659Z,16.53
2018-04-15T23:25:01.292Z,18.67
2018-04-15T23:27:28.887Z,17.17
2018-04-15T23:29:56.541Z,16.80
2018-04-15T23:32:24.202Z,16.23
2018-04-15T23:34:51.853Z,17.87
2018-04-15T23:37:19.600Z,18.73
2018-04-15T23:39:47.297Z,20.00
2018-04-15T23:42:14.957Z,17.43
2018-04-15T23:44:42.625Z,17.07
2018-04-15T23:47:11.248Z,16.43
2018-04-15T23:49:38.840Z,15.83
2018-04-15T23:52:06.508Z,16.93
2018-04-15T23:54:34.199Z,16.47
2018-04-15T23:57:01.861Z,18.93
2018-04-15T23:59:29.696Z,19.60
